Time;durP1;ratioP1;P1;durP2;ratioP2;P2;SDS_P1;SDS_P2;PMS_P1;PMS_P2;Temp;Humidity;BMP_temperature;BMP_pressure;BME280_temperature;BME280_humidity;BME280_pressure;Samples;Min_cycle;Max_cycle;Signal;HPM_P1;HPM_P2
2023/03/08 00:00:50;;;;;;;13.00;6.32;;;;;;;0.15;100.00;99822.91;5016098;28;20036;-79
2023/03/08 00:03:16;;;;;;;13.73;6.97;;;;;;;0.18;100.00;99819.31;5026343;28;20040;-80
2023/03/08 00:05:41;;;;;;;14.32;6.63;;;;;;;0.17;100.00;99825.31;5035133;28;20589;-81
2023/03/08 00:08:07;;;;;;;12.32;6.20;;;;;;;0.15;100.00;99816.97;5013552;28;22405;-79
2023/03/08 00:10:33;;;;;;;12.20;5.72;;;;;;;0.16;100.00;99818.63;5016505;28;20426;-79
2023/03/08 00:13:04;;;;;;;14.05;6.70;;;;;;;0.16;100.00;99821.16;5031216;28;20040;-80
2023/03/08 00:15:29;;;;;;;11.27;6.15;;;;;;;0.15;100.00;99828.00;5017445;28;20471;-80
2023/03/08 00:17:55;;;;;;;13.32;5.60;;;;;;;0.15;100.00;99822.91;5013874;28;20028;-80
2023/03/08 00:20:20;;;;;;;13.10;5.55;;;;;;;0.15;100.00;99820.38;5027555;28;20428;-79
2023/03/08 00:22:46;;;;;;;13.85;6.22;;;;;;;0.14;100.00;99808.53;5031713;28;20753;-80
2023/03/08 00:25:15;;;;;;;12.63;6.07;;;;;;;0.15;100.00;99817.81;5012876;28;20041;-79
2023/03/08 00:27:40;;;;;;;13.40;6.28;;;;;;;0.16;100.00;99823.72;5021353;28;20033;-80
2023/03/08 00:30:06;;;;;;;12.27;6.07;;;;;;;0.17;100.00;99827.88;5010525;28;20036;-79
2023/03/08 00:32:32;;;;;;;18.20;6.53;;;;;;;0.16;100.00;99823.72;5030648;28;20021;-80
2023/03/08 00:34:58;;;;;;;12.23;5.93;;;;;;;0.16;100.00;99821.16;5043338;28;20676;-80
2023/03/08 00:37:23;;;;;;;16.10;5.80;;;;;;;0.18;100.00;99819.31;5021902;28;20041;-80
2023/03/08 00:39:53;;;;;;;10.00;5.60;;;;;;;0.27;100.00;99823.75;5022938;28;20094;-80
2023/03/08 00:42:19;;;;;;;13.13;6.80;;;;;;;0.21;100.00;99813.16;5035303;28;20484;-81
2023/03/08 00:44:45;;;;;;;14.77;5.80;;;;;;;0.22;100.00;99819.91;5031223;28;20071;-80
2023/03/08 00:47:12;;;;;;;11.65;6.05;;;;;;;0.16;100.00;99811.78;5030039;28;20037;-80
2023/03/08 00:49:37;;;;;;;11.80;5.63;;;;;;;0.15;100.00;99819.53;5011009;28;20033;-80
2023/03/08 00:52:03;;;;;;;11.20;5.70;;;;;;;0.15;100.00;99812.72;5019981;28;20041;-79
2023/03/08 00:54:29;;;;;;;11.60;5.85;;;;;;;0.15;100.00;99806.78;5011190;28;20536;-79
2023/03/08 00:56:55;;;;;;;13.45;5.50;;;;;;;0.16;100.00;99806.69;5023770;28;20037;-80
2023/03/08 00:59:21;;;;;;;15.95;5.65;;;;;;;0.19;100.00;99810.75;5012779;28;21199;-79
2023/03/08 01:01:46;;;;;;;14.75;5.35;;;;;;;0.16;100.00;99810.97;5016425;28;20067;-80
2023/03/08 01:04:23;;;;;;;11.30;5.60;;;;;;;0.14;100.00;99810.28;5043422;28;20057;-79
2023/03/08 01:06:50;;;;;;;12.60;5.72;;;;;;;0.13;100.00;99806.09;5016340;28;20029;-80
2023/03/08 01:09:18;;;;;;;11.13;5.65;;;;;;;0.12;100.00;99795.09;5013984;28;20036;-79
2023/03/08 01:11:44;;;;;;;14.40;6.50;;;;;;;0.11;100.00;99790.91;5030063;28;20089;-79
2023/03/08 01:14:11;;;;;;;13.20;5.55;;;;;;;0.12;100.00;99787.44;5030635;28;20048;-78
2023/03/08 01:16:37;;;;;;;13.63;6.97;;;;;;;0.13;100.00;99785.69;5031180;28;20033;-79
2023/03/08 01:19:03;;;;;;;11.27;6.15;;;;;;;0.15;100.00;99786.38;5031028;28;20041;-80
2023/03/08 01:21:29;;;;;;;14.13;6.57;;;;;;;0.13;100.00;99778.03;5027482;28;20052;-79
2023/03/08 01:23:55;;;;;;;15.45;6.10;;;;;;;0.13;100.00;99785.69;5012077;28;20063;-80
2023/03/08 01:26:24;;;;;;;12.77;6.20;;;;;;;0.10;100.00;99778.28;5042997;28;20623;-79
2023/03/08 01:28:53;;;;;;;14.57;6.78;;;;;;;0.08;100.00;99780.16;5041376;28;20045;-80
2023/03/08 01:31:26;;;;;;;13.02;6.22;;;;;;;0.10;100.00;99775.75;5015292;28;20399;-79
2023/03/08 01:33:54;;;;;;;16.50;6.65;;;;;;;0.09;100.00;99776.66;5022145;28;20068;-80
2023/03/08 01:36:22;;;;;;;12.30;6.25;;;;;;;0.12;100.00;99768.78;5023360;28;20033;-78
2023/03/08 01:38:48;;;;;;;12.82;5.88;;;;;;;0.07;100.00;99763.22;5029652;28;20041;-79
2023/03/08 01:41:26;;;;;;;14.68;5.97;;;;;;;0.06;100.00;99749.66;5032079;28;20032;-80
2023/03/08 01:43:52;;;;;;;11.23;5.72;;;;;;;0.07;100.00;99753.81;5018155;28;20029;-79
2023/03/08 01:46:28;;;;;;;13.07;6.00;;;;;;;0.08;100.00;99747.00;5024717;28;20567;-78
2023/03/08 01:49:29;;;;;;;15.35;6.35;;;;;;;0.08;100.00;99739.34;5027926;28;20827;-79
2023/03/08 01:52:13;;;;;;;14.32;5.82;;;;;;;0.07;100.00;99748.72;5015314;28;20036;-78
2023/03/08 01:54:46;;;;;;;14.93;6.72;;;;;;;0.08;100.00;99731.69;5020812;28;20033;-79
2023/03/08 01:57:16;;;;;;;;;;;;;;;0.07;100.00;99723.22;5042979;28;20171;-79
2023/03/08 01:59:43;;;;;;;13.48;6.43;;;;;;;0.08;100.00;99713.84;5036750;28;19926;-80
2023/03/08 02:02:09;;;;;;;14.02;7.15;;;;;;;0.08;100.00;99708.75;5009668;28;20029;-80
2023/03/08 02:04:35;;;;;;;14.63;6.78;;;;;;;0.07;100.00;99712.22;5011057;28;20041;-79
2023/03/08 02:07:01;;;;;;;17.35;7.60;;;;;;;0.08;100.00;99709.56;5009094;28;20025;-79
2023/03/08 02:09:27;;;;;;;21.88;9.43;;;;;;;0.14;100.00;99708.28;5029587;28;20041;-79
2023/03/08 02:11:57;;;;;;;26.55;9.57;;;;;;;0.08;100.00;99707.00;5028023;28;20028;-79
2023/03/08 02:14:24;;;;;;;20.27;9.48;;;;;;;0.05;100.00;99709.78;5014341;28;20560;-79
2023/03/08 02:16:52;;;;;;;19.52;9.38;;;;;;;0.07;100.00;99707.13;5030314;28;20092;-79
2023/03/08 02:19:25;;;;;;;18.30;8.50;;;;;;;0.07;100.00;99712.22;5014999;28;20465;-79
2023/03/08 02:21:50;;;;;;;;;;;;;;;0.05;100.00;99702.13;5028566;28;20040;-79
2023/03/08 02:24:22;;;;;;;17.08;7.93;;;;;;;0.04;100.00;99709.88;5029068;28;19931;-80
2023/03/08 02:26:51;;;;;;;15.02;7.10;;;;;;;0.07;100.00;99719.88;5022637;28;20106;-80
2023/03/08 02:29:17;;;;;;;16.90;6.88;;;;;;;0.09;100.00;99713.72;5029335;28;20044;-80
2023/03/08 02:31:43;;;;;;;13.18;6.90;;;;;;;0.07;100.00;99710.47;5033629;28;20029;-80
2023/03/08 02:34:08;;;;;;;16.00;6.90;;;;;;;0.12;100.00;99700.75;5026964;28;20044;-79
2023/03/08 02:36:34;;;;;;;13.55;6.90;;;;;;;0.09;100.00;99707.81;5014717;28;20033;-80
2023/03/08 02:38:59;;;;;;;16.05;6.90;;;;;;;0.07;100.00;99691.81;5027203;28;20040;-80
2023/03/08 02:41:27;;;;;;;14.38;6.85;;;;;;;0.06;100.00;99690.19;5027759;28;20020;-78
2023/03/08 02:43:52;;;;;;;12.88;7.20;;;;;;;0.03;100.00;99686.16;5006197;28;20033;-80
2023/03/08 02:46:18;;;;;;;21.00;7.18;;;;;;;0.04;100.00;99685.22;5025519;28;20518;-79
2023/03/08 02:48:45;;;;;;;17.63;6.53;;;;;;;0.04;100.00;99677.59;5023660;28;20407;-80
2023/03/08 02:51:10;;;;;;;14.45;6.80;;;;;;;0.08;100.00;99680.72;5023728;28;20666;-80
2023/03/08 02:53:36;;;;;;;13.57;5.97;;;;;;;0.08;100.00;99673.06;5021713;28;20040;-80
2023/03/08 02:56:01;;;;;;;19.50;6.80;;;;;;;0.14;100.00;99682.78;5012536;28;20033;-79
2023/03/08 02:58:28;;;;;;;11.98;6.35;;;;;;;0.08;100.00;99678.97;5010887;28;20163;-79
2023/03/08 03:00:53;;;;;;;14.32;7.07;;;;;;;0.06;100.00;99673.19;5016043;28;20025;-79
2023/03/08 03:03:18;;;;;;;15.00;7.10;;;;;;;0.18;100.00;99677.34;5024699;28;20832;-80
2023/03/08 03:05:44;;;;;;;12.20;5.97;;;;;;;0.14;100.00;99665.75;5022208;28;20548;-79
2023/03/08 03:08:14;;;;;;;14.57;6.53;;;;;;;0.17;100.00;99657.88;5029928;28;20040;-80
2023/03/08 03:10:40;;;;;;;12.55;5.90;;;;;;;0.13;100.00;99656.50;5010910;28;20036;-79
2023/03/08 03:13:06;;;;;;;13.32;6.30;;;;;;;0.08;100.00;99645.84;5009821;28;20590;-80
2023/03/08 03:15:32;;;;;;;13.50;5.28;;;;;;;0.05;100.00;99646.06;5029308;28;20110;-79
2023/03/08 03:17:59;;;;;;;13.75;6.07;;;;;;;0.05;100.00;99656.25;5029366;28;20029;-79
2023/03/08 03:20:24;;;;;;;12.38;6.05;;;;;;;0.06;100.00;99645.13;5033277;28;20029;-78
2023/03/08 03:22:50;;;;;;;13.10;7.10;;;;;;;0.06;100.00;99637.50;5022625;28;20024;-80
2023/03/08 03:25:18;;;;;;;13.43;6.38;;;;;;;0.10;100.00;99628.69;5033080;28;20116;-79
2023/03/08 03:27:46;;;;;;;12.68;6.22;;;;;;;0.23;100.00;99631.09;5007986;28;20406;-80
2023/03/08 03:30:12;;;;;;;11.90;6.57;;;;;;;0.12;100.00;99624.25;5005938;28;20038;-80
2023/03/08 03:32:38;;;;;;;16.10;7.38;;;;;;;0.15;100.00;99625.75;5016120;28;20588;-80
2023/03/08 03:35:05;;;;;;;16.60;6.38;;;;;;;0.14;100.00;99630.06;5015516;28;20373;-80
2023/03/08 03:37:33;;;;;;;20.15;6.55;;;;;;;0.12;100.00;99626.81;5017593;28;20025;-79
2023/03/08 03:39:59;;;;;;;15.95;6.28;;;;;;;0.06;100.00;99624.75;5031048;28;20049;-80
2023/03/08 03:42:25;;;;;;;19.48;7.15;;;;;;;0.07;100.00;99610.25;5017739;28;20025;-80
2023/03/08 03:45:00;;;;;;;12.10;6.07;;;;;;;-0.01;100.00;99614.19;5012199;28;21544;-80
2023/03/08 03:47:25;;;;;;;13.13;6.68;;;;;;;-0.01;100.00;99615.94;5014015;28;20017;-80
2023/03/08 03:49:57;;;;;;;14.70;6.43;;;;;;;0.01;100.00;99614.06;5010150;28;20033;-79
2023/03/08 03:52:23;;;;;;;19.85;6.57;;;;;;;-0.06;100.00;99612.91;5013319;28;20055;-79
2023/03/08 03:54:56;;;;;;;15.63;6.05;;;;;;;0.17;100.00;99609.44;5021950;28;20029;-80
2023/03/08 03:57:22;;;;;;;15.60;6.50;;;;;;;0.07;100.00;99602.59;5050577;28;20036;-80
2023/03/08 03:59:47;;;;;;;22.90;7.72;;;;;;;-0.01;100.00;99598.09;5021040;28;20087;-80
2023/03/08 04:02:13;;;;;;;17.42;6.65;;;;;;;-0.05;100.00;99599.25;5019641;28;20037;-79
2023/03/08 04:04:50;;;;;;;26.73;7.43;;;;;;;-0.03;100.00;99597.41;5014008;28;20067;-79
2023/03/08 04:07:19;;;;;;;27.27;9.10;;;;;;;-0.03;100.00;99584.66;5035691;28;20507;-79
2023/03/08 04:09:53;;;;;;;22.98;8.27;;;;;;;0.02;100.00;99594.50;5028389;28;20044;-80
2023/03/08 04:12:18;;;;;;;20.08;7.38;;;;;;;-0.03;100.00;99582.91;5026774;28;20063;-79
2023/03/08 04:14:44;;;;;;;19.58;7.22;;;;;;;-0.04;100.00;99590.66;5025490;28;20568;-80
2023/03/08 04:17:11;;;;;;;20.60;7.65;;;;;;;-0.06;100.00;99582.34;5036655;28;20079;-79
2023/03/08 04:19:42;;;;;;;17.15;8.07;;;;;;;-0.14;100.00;99574.47;5007752;28;20041;-79
2023/03/08 04:22:09;;;;;;;14.18;7.20;;;;;;;-0.16;100.00;99572.03;5029863;28;20040;-79
2023/03/08 04:24:42;;;;;;;;;;;;;;;-0.22;100.00;99575.06;5007052;28;20030;-79
2023/03/08 04:27:13;;;;;;;16.17;6.78;;;;;;;-0.16;100.00;99564.38;5032008;28;20007;-79
2023/03/08 04:29:38;;;;;;;14.98;6.65;;;;;;;-0.08;100.00;99566.34;5013976;28;20033;-78
2023/03/08 04:32:05;;;;;;;19.83;7.03;;;;;;;-0.16;100.00;99559.28;5030847;28;20538;-80
2023/03/08 04:34:41;;;;;;;18.10;7.22;;;;;;;-0.20;100.00;99558.72;5014482;28;21060;-79
2023/03/08 04:37:12;;;;;;;21.63;7.15;;;;;;;-0.10;100.00;99547.81;5044039;28;20033;-79
2023/03/08 04:39:38;;;;;;;23.00;7.65;;;;;;;-0.11;100.00;99538.56;5023953;28;20425;-79
2023/03/08 04:42:04;;;;;;;21.05;7.28;;;;;;;-0.13;100.00;99541.22;5013332;28;20088;-79
2023/03/08 04:44:31;;;;;;;17.77;8.27;;;;;;;-0.17;100.00;99546.66;5024153;28;20080;-79
2023/03/08 04:46:57;;;;;;;21.40;8.52;;;;;;;-0.28;100.00;99543.22;5030284;28;20020;-79
2023/03/08 04:49:33;;;;;;;20.33;8.13;;;;;;;-0.24;100.00;99531.84;5029950;28;20491;-79
2023/03/08 04:52:01;;;;;;;21.77;9.15;;;;;;;-0.23;100.00;99533.50;5022804;28;20115;-79
2023/03/08 04:54:27;;;;;;;18.52;8.40;;;;;;;-0.19;100.00;99521.28;5033157;28;20079;-79
2023/03/08 04:57:01;;;;;;;16.63;7.90;;;;;;;-0.25;100.00;99519.22;5024624;28;20036;-79
2023/03/08 04:59:26;;;;;;;20.88;8.88;;;;;;;-0.24;100.00;99514.03;5031967;28;20038;-79
2023/03/08 05:01:55;;;;;;;21.63;9.95;;;;;;;-0.36;100.00;99517.50;5032575;28;20040;-79
2023/03/08 05:04:21;;;;;;;19.05;9.30;;;;;;;-0.25;100.00;99511.59;5027164;28;20029;-79
2023/03/08 05:06:47;;;;;;;24.90;10.77;;;;;;;-0.28;100.00;99510.09;5012900;28;20036;-79
2023/03/08 05:09:18;;;;;;;22.90;9.88;;;;;;;-0.29;100.00;99505.91;5028831;28;20041;-80
2023/03/08 05:11:47;;;;;;;22.45;9.55;;;;;;;-0.31;100.00;99495.03;5016456;28;20081;-79
2023/03/08 05:14:14;;;;;;;23.15;10.15;;;;;;;-0.29;100.00;99495.72;5030562;28;20561;-78
2023/03/08 05:16:40;;;;;;;21.17;10.57;;;;;;;-0.28;100.00;99497.34;5014303;28;20032;-79
2023/03/08 05:19:05;;;;;;;27.83;10.65;;;;;;;-0.43;100.00;99486.59;5033702;28;20434;-78
2023/03/08 05:21:39;;;;;;;24.00;11.57;;;;;;;-0.26;100.00;99481.94;5031028;28;20067;-78
2023/03/08 05:24:05;;;;;;;35.58;12.98;;;;;;;-0.34;100.00;99481.72;5036586;28;20515;-79
2023/03/08 05:26:34;;;;;;;26.35;11.93;;;;;;;-0.37;100.00;99479.41;5025877;28;20037;-80
2023/03/08 05:29:05;;;;;;;27.02;11.77;;;;;;;-0.35;100.00;99475.00;5011984;28;20056;-79
2023/03/08 05:31:32;;;;;;;31.27;12.75;;;;;;;-0.31;100.00;99476.38;5015242;28;20074;-77
2023/03/08 05:34:01;;;;;;;29.30;11.88;;;;;;;-0.41;100.00;99456.72;5018603;28;20025;-77
2023/03/08 05:36:33;;;;;;;32.33;11.73;;;;;;;-0.45;100.00;99462.97;5030222;28;20025;-78
2023/03/08 05:38:59;;;;;;;29.73;13.35;;;;;;;-0.37;100.00;99457.28;5030543;28;20040;-77
2023/03/08 05:41:33;;;;;;;28.40;12.60;;;;;;;-0.52;100.00;99444.00;5031953;28;20028;-76
2023/03/08 05:44:01;;;;;;;35.90;13.98;;;;;;;-0.40;100.00;99447.34;5028379;28;20093;-78
2023/03/08 05:46:28;;;;;;;39.45;13.82;;;;;;;-0.50;100.00;99439.59;5007238;28;20030;-79
2023/03/08 05:48:54;;;;;;;32.70;13.30;;;;;;;-0.48;100.00;99426.75;5032026;28;20040;-78
2023/03/08 05:51:20;;;;;;;32.92;13.40;;;;;;;-0.46;100.00;99422.34;5027582;28;20033;-79
2023/03/08 05:53:46;;;;;;;30.60;13.43;;;;;;;-0.64;100.00;99415.19;5028317;28;20033;-77
2023/03/08 05:56:19;;;;;;;29.23;13.52;;;;;;;-0.61;100.00;99412.41;5030285;28;20075;-77
2023/03/08 05:58:58;;;;;;;28.77;13.20;;;;;;;-0.57;100.00;99407.09;5017820;28;20155;-78
2023/03/08 06:01:27;;;;;;;38.58;14.20;;;;;;;-0.65;100.00;99402.59;5025185;28;20037;-76
2023/03/08 06:03:57;;;;;;;30.35;14.35;;;;;;;-0.59;100.00;99397.81;5021134;28;20882;-76
2023/03/08 06:06:26;;;;;;;34.65;12.77;;;;;;;-0.59;100.00;99392.72;5029850;28;20458;-77
2023/03/08 06:08:57;;;;;;;37.70;14.98;;;;;;;-0.55;100.00;99384.84;5023006;28;21042;-78
2023/03/08 06:11:23;;;;;;;33.20;13.43;;;;;;;-0.66;100.00;99383.13;5041741;28;20033;-77
2023/03/08 06:13:50;;;;;;;35.03;13.52;;;;;;;-0.67;100.00;99374.69;5022090;28;20821;-76
2023/03/08 06:16:16;;;;;;;32.92;14.25;;;;;;;-0.61;100.00;99376.75;5028838;28;20039;-77
2023/03/08 06:18:42;;;;;;;29.35;12.00;;;;;;;-0.55;100.00;99362.72;5025778;28;20034;-78
2023/03/08 06:21:15;;;;;;;34.33;13.95;;;;;;;-0.55;100.00;99360.19;5022171;28;20781;-77
2023/03/08 06:23:42;;;;;;;31.00;13.25;;;;;;;-0.54;100.00;99348.28;5037436;28;20112;-76
2023/03/08 06:26:09;;;;;;;32.03;13.73;;;;;;;-0.63;100.00;99342.97;5026504;28;20029;-76
2023/03/08 06:28:39;;;;;;;33.58;14.57;;;;;;;-0.50;100.00;99330.09;5027166;28;20112;-75
2023/03/08 06:31:05;;;;;;;32.75;13.68;;;;;;;-0.56;100.00;99337.41;5027470;28;20094;-75
2023/03/08 06:33:34;;;;;;;34.25;14.10;;;;;;;-0.56;100.00;99334.88;5022462;28;20128;-77
2023/03/08 06:36:04;;;;;;;36.85;14.95;;;;;;;-0.64;100.00;99333.72;5029495;28;20029;-75
2023/03/08 06:38:32;;;;;;;36.83;16.65;;;;;;;-0.71;100.00;99344.50;5026657;28;20045;-76
2023/03/08 06:40:58;;;;;;;38.08;15.73;;;;;;;-0.57;100.00;99338.31;5009676;28;20790;-76
2023/03/08 06:43:24;;;;;;;39.45;16.25;;;;;;;-0.53;100.00;99334.59;5011012;28;20102;-76
2023/03/08 06:45:50;;;;;;;39.95;15.25;;;;;;;-0.57;100.00;99333.22;5043694;28;20554;-75
2023/03/08 06:48:16;;;;;;;36.95;15.30;;;;;;;-0.62;100.00;99328.50;5027550;28;20711;-78
2023/03/08 06:50:41;;;;;;;37.42;15.13;;;;;;;-0.56;100.00;99334.88;5019279;28;20682;-75
2023/03/08 06:53:09;;;;;;;35.20;14.60;;;;;;;-0.64;100.00;99325.25;5026493;28;20472;-76
2023/03/08 06:55:46;;;;;;;35.95;15.52;;;;;;;-0.65;100.00;99319.34;5023806;28;20029;-76
2023/03/08 06:58:11;;;;;;;34.35;14.20;;;;;;;-0.60;100.00;99319.81;5029084;28;20409;-75
2023/03/08 07:00:37;;;;;;;36.75;14.40;;;;;;;-0.59;100.00;99329.06;5009662;28;20040;-75
2023/03/08 07:03:02;;;;;;;35.63;13.88;;;;;;;-0.59;100.00;99313.78;5018661;28;20037;-77
2023/03/08 07:05:27;;;;;;;28.48;12.77;;;;;;;-0.59;100.00;99313.78;4990747;28;20033;-75
2023/03/08 07:07:53;;;;;;;36.78;13.82;;;;;;;-0.54;100.00;99318.53;5005196;28;20037;-76
2023/03/08 07:10:20;;;;;;;35.67;12.75;;;;;;;-0.53;100.00;99316.78;5001733;28;20522;-75
2023/03/08 07:12:49;;;;;;;34.95;14.02;;;;;;;-0.57;100.00;99310.31;5003919;28;20033;-74
2023/03/08 07:15:17;;;;;;;30.70;14.10;;;;;;;-0.65;100.00;99311.72;5000129;28;20037;-74
2023/03/08 07:17:44;;;;;;;33.78;13.38;;;;;;;-0.60;100.00;99312.19;4997665;28;20068;-73
2023/03/08 07:20:12;;;;;;;31.50;12.65;;;;;;;-0.55;100.00;99311.00;5015496;28;20045;-74
2023/03/08 07:22:38;;;;;;;34.90;13.60;;;;;;;-0.60;100.00;99312.19;5006595;28;20029;-74
2023/03/08 07:25:04;;;;;;;38.25;15.35;;;;;;;-0.70;100.00;99302.81;5002224;28;20041;-74
2023/03/08 07:27:29;;;;;;;34.97;14.60;;;;;;;-0.67;100.00;99310.22;5008484;28;20098;-74
2023/03/08 07:29:54;;;;;;;36.05;14.70;;;;;;;-0.64;100.00;99312.53;5019247;28;20046;-73
2023/03/08 07:32:22;;;;;;;32.10;13.57;;;;;;;-0.62;100.00;99306.41;5004763;28;20044;-74
2023/03/08 07:34:47;;;;;;;31.15;12.85;;;;;;;-0.62;100.00;99295.41;5003891;28;20045;-74
2023/03/08 07:37:14;;;;;;;46.28;18.10;;;;;;;-0.65;100.00;99281.16;5011563;28;20037;-76
2023/03/08 07:39:39;;;;;;;28.58;12.13;;;;;;;-0.66;100.00;99273.66;5001401;28;20045;-73
2023/03/08 07:42:05;;;;;;;24.52;9.93;;;;;;;-0.68;100.00;99283.16;5022476;28;20032;-73
2023/03/08 07:44:30;;;;;;;25.63;9.35;;;;;;;-0.64;100.00;99276.88;5001327;28;20037;-73
2023/03/08 07:46:56;;;;;;;20.98;9.02;;;;;;;-0.59;100.00;99270.50;5003658;28;20040;-73
2023/03/08 07:49:21;;;;;;;19.17;8.63;;;;;;;-0.63;100.00;99270.88;5017196;28;20038;-73
2023/03/08 07:51:53;;;;;;;23.92;8.50;;;;;;;-0.57;100.00;99257.63;4999657;28;20064;-73
2023/03/08 07:54:18;;;;;;;23.67;8.45;;;;;;;-0.66;100.00;99255.81;5006251;28;20046;-73
2023/03/08 07:56:44;;;;;;;20.33;8.23;;;;;;;-0.69;100.00;99258.63;5014275;28;20074;-73
2023/03/08 07:59:10;;;;;;;19.55;7.20;;;;;;;-0.60;100.00;99260.44;4998910;28;20042;-73
2023/03/08 08:01:35;;;;;;;21.73;7.90;;;;;;;-0.64;100.00;99251.41;5005028;28;20036;-73
2023/03/08 08:04:01;;;;;;;19.75;8.07;;;;;;;-0.61;100.00;99246.09;5016677;28;20052;-74
2023/03/08 08:06:27;;;;;;;24.67;9.05;;;;;;;-0.68;100.00;99235.59;5009386;28;20045;-74
2023/03/08 08:08:54;;;;;;;21.08;7.60;;;;;;;-0.59;100.00;99241.69;5022703;28;20063;-74
2023/03/08 08:11:19;;;;;;;18.92;7.88;;;;;;;-0.62;100.00;99235.09;5036775;28;20041;-73
2023/03/08 08:13:48;;;;;;;18.40;7.80;;;;;;;-0.57;100.00;99226.28;5034814;28;20033;-78
2023/03/08 08:16:16;;;;;;;18.95;7.38;;;;;;;-0.64;100.00;99223.41;5021363;28;20124;-73
2023/03/08 08:18:41;;;;;;;22.33;9.35;;;;;;;-0.67;100.00;99221.91;5035126;28;20048;-73
2023/03/08 08:21:09;;;;;;;21.15;9.18;;;;;;;-0.61;100.00;99213.78;5024721;28;20029;-73
2023/03/08 08:23:35;;;;;;;27.00;9.90;;;;;;;-0.65;100.00;99198.88;5036361;28;20131;-75
2023/03/08 08:26:19;;;;;;;21.23;8.73;;;;;;;-0.63;100.00;99202.13;5024160;28;20124;-74
2023/03/08 08:28:47;;;;;;;21.45;9.35;;;;;;;-0.54;100.00;99198.84;5037400;28;20055;-74
2023/03/08 08:31:16;;;;;;;23.70;9.38;;;;;;;-0.53;100.00;99192.78;5045802;28;20135;-74
2023/03/08 08:33:41;;;;;;;25.95;9.77;;;;;;;-0.66;100.00;99194.72;5039480;28;20071;-75
2023/03/08 08:36:10;;;;;;;24.73;9.07;;;;;;;-0.59;100.00;99193.31;5024819;28;20026;-75
2023/03/08 08:38:36;;;;;;;19.90;8.52;;;;;;;-0.60;100.00;99187.41;5030375;28;20051;-75
2023/03/08 08:41:04;;;;;;;27.38;10.07;;;;;;;-0.52;100.00;99178.34;5027278;28;20041;-74
2023/03/08 08:43:30;;;;;;;25.83;9.98;;;;;;;-0.53;100.00;99174.97;5039187;28;20040;-74
2023/03/08 08:45:58;;;;;;;27.63;10.30;;;;;;;-0.50;100.00;99176.47;5044361;28;20400;-74
2023/03/08 08:48:24;;;;;;;24.58;9.20;;;;;;;-0.46;100.00;99165.91;5026098;28;20061;-75
2023/03/08 08:50:51;;;;;;;28.48;12.75;;;;;;;-0.49;100.00;99158.53;5013495;28;20024;-77
2023/03/08 08:53:17;;;;;;;21.27;8.80;;;;;;;-0.52;100.00;99151.13;5032262;28;20044;-73
2023/03/08 08:55:43;;;;;;;15.38;7.05;;;;;;;-0.50;100.00;99130.63;5026399;28;20119;-72
2023/03/08 08:58:08;;;;;;;17.95;7.72;;;;;;;-0.45;100.00;99129.34;5038755;28;20143;-73
2023/03/08 09:00:35;;;;;;;14.55;7.40;;;;;;;-0.36;100.00;99135.38;5028448;28;20534;-73
2023/03/08 09:03:01;;;;;;;14.60;7.15;;;;;;;-0.28;100.00;99142.44;5024257;28;20120;-72
2023/03/08 09:05:27;;;;;;;14.05;6.80;;;;;;;-0.29;100.00;99138.25;5023033;28;20115;-72
2023/03/08 09:07:54;;;;;;;12.80;5.88;;;;;;;-0.27;100.00;99147.38;5038781;28;20041;-72
2023/03/08 09:10:20;;;;;;;13.63;5.55;;;;;;;-0.18;100.00;99138.16;5024052;28;20030;-71
2023/03/08 09:12:46;;;;;;;11.18;6.18;;;;;;;-0.17;100.00;99133.88;5015672;28;20037;-70
2023/03/08 09:15:11;;;;;;;12.80;5.70;;;;;;;-0.09;100.00;99124.66;5038096;28;20372;-72
2023/03/08 09:17:38;;;;;;;11.15;5.70;;;;;;;-0.18;100.00;99112.69;5021749;28;20021;-73
2023/03/08 09:20:05;;;;;;;10.13;5.13;;;;;;;-0.04;100.00;99114.91;5027889;28;20128;-71
2023/03/08 09:22:31;;;;;;;8.82;4.85;;;;;;;0.03;100.00;99107.53;5024939;28;20037;-71
2023/03/08 09:24:56;;;;;;;12.02;5.47;;;;;;;-0.03;100.00;99108.06;5023173;28;20033;-72
2023/03/08 09:27:22;;;;;;;11.40;5.10;;;;;;;-0.05;100.00;99102.28;5044104;28;20047;-72
2023/03/08 09:29:47;;;;;;;10.10;5.07;;;;;;;-0.03;100.00;99105.50;5026475;28;20041;-73
2023/03/08 09:32:13;;;;;;;8.25;4.68;;;;;;;0.00;100.00;99107.81;5043607;28;21000;-73
2023/03/08 09:34:38;;;;;;;8.32;4.20;;;;;;;-0.04;100.00;99112.34;5041906;28;20041;-73
2023/03/08 09:37:06;;;;;;;7.47;4.43;;;;;;;-0.08;100.00;99103.31;5041327;28;20106;-73
2023/03/08 09:39:32;;;;;;;9.60;4.75;;;;;;;-0.08;100.00;99099.97;5029098;28;20068;-73
2023/03/08 09:42:00;;;;;;;7.97;4.95;;;;;;;-0.10;100.00;99100.09;5007859;28;20355;-74
2023/03/08 09:44:44;;;;;;;7.80;4.30;;;;;;;-0.06;100.00;99105.75;5040579;28;20037;-74
2023/03/08 09:47:26;;;;;;;9.95;4.68;;;;;;;-0.08;100.00;99108.44;5046844;28;20051;-73
2023/03/08 09:49:57;;;;;;;9.07;5.10;;;;;;;-0.12;100.00;99103.72;5028296;28;20033;-73
2023/03/08 09:52:37;;;;;;;7.75;4.43;;;;;;;-0.01;100.00;99096.78;5044170;28;20060;-73
2023/03/08 09:55:05;;;;;;;8.20;5.15;;;;;;;-0.11;100.00;99090.06;5022799;28;20033;-73
2023/03/08 09:57:40;;;;;;;9.40;4.78;;;;;;;0.03;100.00;99082.03;5010078;28;20095;-73
2023/03/08 10:00:12;;;;;;;12.45;7.50;;;;;;;0.06;100.00;99080.97;5023992;28;20120;-73
2023/03/08 10:02:49;;;;;;;8.95;5.07;;;;;;;0.13;100.00;99079.50;5040596;28;20571;-73
2023/03/08 10:05:42;;;;;;;9.52;5.88;;;;;;;0.16;100.00;99069.88;5026410;28;20574;-73
2023/03/08 10:08:14;;;;;;;9.32;4.85;;;;;;;0.23;100.00;99065.06;5009241;28;20034;-72
2023/03/08 10:10:59;;;;;;;8.25;4.70;;;;;;;0.34;100.00;99064.94;5043639;28;20038;-73
2023/03/08 10:13:32;;;;;;;11.70;4.50;;;;;;;0.38;100.00;99060.38;5037753;28;20572;-72
2023/03/08 10:16:22;;;;;;;7.38;4.65;;;;;;;0.43;100.00;99070.19;5044217;28;20043;-73
2023/03/08 10:18:47;;;;;;;8.15;4.70;;;;;;;0.45;100.00;99069.09;5038530;28;20141;-73
2023/03/08 10:21:16;;;;;;;9.35;5.20;;;;;;;0.48;100.00;99065.50;5039173;28;20112;-72
2023/03/08 10:23:45;;;;;;;8.27;4.70;;;;;;;0.47;100.00;99061.31;5041867;28;20034;-72
2023/03/08 10:26:13;;;;;;;8.30;4.90;;;;;;;0.44;100.00;99059.03;5038216;28;20037;-72
2023/03/08 10:28:39;;;;;;;8.48;4.40;;;;;;;0.41;100.00;99049.91;5043284;28;20044;-73
2023/03/08 10:31:20;;;;;;;11.70;4.88;;;;;;;0.44;100.00;99046.28;5024820;28;20024;-73
2023/03/08 10:33:49;;;;;;;18.73;4.13;;;;;;;0.47;100.00;99044.28;5022461;28;20033;-72
2023/03/08 10:36:21;;;;;;;8.90;4.25;;;;;;;0.45;100.00;99035.94;5019493;28;20040;-72
2023/03/08 10:39:08;;;;;;;6.88;4.47;;;;;;;0.54;100.00;99037.69;5017417;28;20043;-73
2023/03/08 10:41:43;;;;;;;8.18;5.20;;;;;;;0.48;100.00;99020.38;5004650;28;20551;-72
2023/03/08 10:44:35;;;;;;;5.60;3.78;;;;;;;0.66;100.00;99012.03;5041687;28;20045;-73
2023/03/08 10:47:03;;;;;;;6.30;3.40;;;;;;;0.65;100.00;99013.78;5043151;28;20052;-72
2023/03/08 10:49:29;;;;;;;8.07;4.50;;;;;;;0.78;100.00;99010.97;5024970;28;20033;-73
2023/03/08 10:52:00;;;;;;;7.20;4.35;;;;;;;0.80;100.00;99021.84;5036326;28;20048;-74
2023/03/08 10:54:27;;;;;;;10.48;4.60;;;;;;;0.74;100.00;99022.38;5037239;28;20044;-73
2023/03/08 10:56:54;;;;;;;7.75;4.35;;;;;;;0.68;100.00;99010.97;5024086;28;20446;-73
2023/03/08 10:59:28;;;;;;;7.38;4.43;;;;;;;0.63;100.00;99002.91;5034883;28;20053;-73
2023/03/08 11:01:58;;;;;;;8.95;5.53;;;;;;;0.69;100.00;99015.13;5027995;28;20041;-73
2023/03/08 11:04:25;;;;;;;10.60;5.45;;;;;;;0.71;100.00;99018.34;5041400;28;20037;-74
2023/03/08 11:06:51;;;;;;;7.07;5.05;;;;;;;0.66;100.00;99019.69;5005373;28;20863;-74
2023/03/08 11:09:28;;;;;;;7.43;4.63;;;;;;;0.84;100.00;99019.81;5004645;28;20044;-74
2023/03/08 11:11:55;;;;;;;11.15;5.45;;;;;;;0.74;100.00;99022.38;5037284;28;20036;-74
2023/03/08 11:14:22;;;;;;;30.48;11.20;;;;;;;0.81;100.00;99020.06;5041543;28;20521;-74
2023/03/08 11:17:01;;;;;;;13.85;6.50;;;;;;;0.82;100.00;99016.59;5037604;28;20059;-74
2023/03/08 11:19:58;;;;;;;9.32;5.78;;;;;;;0.78;100.00;99011.75;5023160;28;20052;-74
2023/03/08 11:22:42;;;;;;;12.00;6.20;;;;;;;0.85;100.00;99011.19;5024436;28;20041;-74
2023/03/08 11:25:20;;;;;;;12.60;6.15;;;;;;;0.94;100.00;98995.06;5016990;28;20085;-74
2023/03/08 11:27:58;;;;;;;9.70;6.05;;;;;;;1.04;100.00;98995.06;5037421;28;20028;-75